sensor_id;sensor_type;location;lat;lon;timestamp;temperature;humidity
17697;DHT22;8967;47.984;7.842;2022-10-23T00:01:11;14.10;99.90
17697;DHT22;8967;47.984;7.842;2022-10-23T00:03:38;14.10;99.90
17697;DHT22;8967;47.984;7.842;2022-10-23T00:06:05;14.10;99.90
17697;DHT22;8967;47.984;7.842;2022-10-23T00:08:32;14.10;99.90
17697;DHT22;8967;47.984;7.842;2022-10-23T00:11:04;14.10;99.90
17697;DHT22;8967;47.984;7.842;2022-10-23T00:13:31;14.10;99.90
17697;DHT22;8967;47.984;7.842;2022-10-23T00:16:00;14.10;99.90
17697;DHT22;8967;47.984;7.842;2022-10-23T00:18:27;14.10;99.90
17697;DHT22;8967;47.984;7.842;2022-10-23T00:20:55;14.10;99.90
17697;DHT22;8967;47.984;7.842;2022-10-23T00:23:22;14.10;99.90
17697;DHT22;8967;47.984;7.842;2022-10-23T00:25:49;14.10;99.90
17697;DHT22;8967;47.984;7.842;2022-10-23T00:28:17;14.10;99.90
17697;DHT22;8967;47.984;7.842;2022-10-23T00:30:44;14.10;99.90
17697;DHT22;8967;47.984;7.842;2022-10-23T00:33:11;14.10;99.90
17697;DHT22;8967;47.984;7.842;2022-10-23T00:35:38;14.10;99.90
17697;DHT22;8967;47.984;7.842;2022-10-23T00:38:05;14.10;99.90
17697;DHT22;8967;47.984;7.842;2022-10-23T00:40:32;14.10;99.90
17697;DHT22;8967;47.984;7.842;2022-10-23T00:42:59;14.10;99.90
17697;DHT22;8967;47.984;7.842;2022-10-23T00:45:31;14.10;99.90
17697;DHT22;8967;47.984;7.842;2022-10-23T00:48:01;14.10;99.90
17697;DHT22;8967;47.984;7.842;2022-10-23T00:50:31;14.10;99.90
17697;DHT22;8967;47.984;7.842;2022-10-23T00:53:01;14.10;99.90
17697;DHT22;8967;47.984;7.842;2022-10-23T00:55:29;14.10;99.90
17697;DHT22;8967;47.984;7.842;2022-10-23T00:57:57;14.10;99.90
17697;DHT22;8967;47.984;7.842;2022-10-23T01:00:27;14.10;99.90
17697;DHT22;8967;47.984;7.842;2022-10-23T01:02:56;14.10;99.90
17697;DHT22;8967;47.984;7.842;2022-10-23T01:05:30;14.10;99.90
17697;DHT22;8967;47.984;7.842;2022-10-23T01:08:03;14.10;99.90
17697;DHT22;8967;47.984;7.842;2022-10-23T01:10:35;14.10;99.90
17697;DHT22;8967;47.984;7.842;2022-10-23T01:13:14;14.10;99.90
17697;DHT22;8967;47.984;7.842;2022-10-23T01:15:45;14.00;99.90
17697;DHT22;8967;47.984;7.842;2022-10-23T01:18:21;14.00;99.90
17697;DHT22;8967;47.984;7.842;2022-10-23T01:20:55;14.00;99.90
17697;DHT22;8967;47.984;7.842;2022-10-23T01:23:41;14.00;99.90
17697;DHT22;8967;47.984;7.842;2022-10-23T01:26:29;14.00;99.90
17697;DHT22;8967;47.984;7.842;2022-10-23T01:29:05;13.90;99.90
17697;DHT22;8967;47.984;7.842;2022-10-23T01:31:36;13.90;99.90
17697;DHT22;8967;47.984;7.842;2022-10-23T01:34:08;13.90;99.90
17697;DHT22;8967;47.984;7.842;2022-10-23T01:36:41;13.90;99.90
17697;DHT22;8967;47.984;7.842;2022-10-23T01:39:13;13.90;99.90
17697;DHT22;8967;47.984;7.842;2022-10-23T01:41:46;13.80;99.90
17697;DHT22;8967;47.984;7.842;2022-10-23T01:44:25;13.80;99.90
17697;DHT22;8967;47.984;7.842;2022-10-23T01:46:55;13.80;99.90
17697;DHT22;8967;47.984;7.842;2022-10-23T01:49:25;13.80;99.90
17697;DHT22;8967;47.984;7.842;2022-10-23T01:51:57;13.80;99.90
17697;DHT22;8967;47.984;7.842;2022-10-23T01:54:29;13.80;99.90
17697;DHT22;8967;47.984;7.842;2022-10-23T01:56:58;13.70;99.90
17697;DHT22;8967;47.984;7.842;2022-10-23T01:59:32;13.70;99.90
17697;DHT22;8967;47.984;7.842;2022-10-23T02:02:05;13.70;99.90
17697;DHT22;8967;47.984;7.842;2022-10-23T02:04:37;13.70;99.90
17697;DHT22;8967;47.984;7.842;2022-10-23T02:07:05;13.70;99.90
17697;DHT22;8967;47.984;7.842;2022-10-23T02:09:32;13.70;99.90
17697;DHT22;8967;47.984;7.842;2022-10-23T02:12:04;13.70;99.90
17697;DHT22;8967;47.984;7.842;2022-10-23T02:14:39;13.70;99.90
17697;DHT22;8967;47.984;7.842;2022-10-23T02:17:13;13.70;99.90
17697;DHT22;8967;47.984;7.842;2022-10-23T02:19:46;13.70;99.90
17697;DHT22;8967;47.984;7.842;2022-10-23T02:22:20;13.70;99.90
17697;DHT22;8967;47.984;7.842;2022-10-23T02:24:51;13.70;99.90
17697;DHT22;8967;47.984;7.842;2022-10-23T02:27:24;13.70;99.90
17697;DHT22;8967;47.984;7.842;2022-10-23T02:30:02;13.70;99.90
17697;DHT22;8967;47.984;7.842;2022-10-23T02:32:31;13.70;99.90
17697;DHT22;8967;47.984;7.842;2022-10-23T02:35:00;13.70;99.90
17697;DHT22;8967;47.984;7.842;2022-10-23T02:37:27;13.70;99.90
17697;DHT22;8967;47.984;7.842;2022-10-23T02:39:54;13.60;99.90
17697;DHT22;8967;47.984;7.842;2022-10-23T02:42:25;13.60;99.90
17697;DHT22;8967;47.984;7.842;2022-10-23T02:45:02;13.60;99.90
17697;DHT22;8967;47.984;7.842;2022-10-23T02:47:49;13.60;99.90
17697;DHT22;8967;47.984;7.842;2022-10-23T02:50:24;13.50;99.90
17697;DHT22;8967;47.984;7.842;2022-10-23T02:52:57;13.50;99.90
17697;DHT22;8967;47.984;7.842;2022-10-23T02:55:37;13.50;99.90
17697;DHT22;8967;47.984;7.842;2022-10-23T02:58:10;13.50;99.90
17697;DHT22;8967;47.984;7.842;2022-10-23T03:00:46;13.50;99.90
17697;DHT22;8967;47.984;7.842;2022-10-23T03:03:18;13.50;99.90
17697;DHT22;8967;47.984;7.842;2022-10-23T03:05:46;13.40;99.90
17697;DHT22;8967;47.984;7.842;2022-10-23T03:08:13;13.40;99.90
17697;DHT22;8967;47.984;7.842;2022-10-23T03:10:41;13.40;99.90
17697;DHT22;8967;47.984;7.842;2022-10-23T03:13:11;13.40;99.90
17697;DHT22;8967;47.984;7.842;2022-10-23T03:15:43;13.40;99.90
17697;DHT22;8967;47.984;7.842;2022-10-23T03:18:13;13.30;99.90
17697;DHT22;8967;47.984;7.842;2022-10-23T03:20:45;13.30;99.90
17697;DHT22;8967;47.984;7.842;2022-10-23T03:23:13;13.30;99.90
17697;DHT22;8967;47.984;7.842;2022-10-23T03:25:41;13.30;99.90
17697;DHT22;8967;47.984;7.842;2022-10-23T03:28:09;13.30;99.90
17697;DHT22;8967;47.984;7.842;2022-10-23T03:30:37;13.30;99.90
17697;DHT22;8967;47.984;7.842;2022-10-23T03:33:05;13.30;99.90
17697;DHT22;8967;47.984;7.842;2022-10-23T03:35:34;13.30;99.90
17697;DHT22;8967;47.984;7.842;2022-10-23T03:38:01;13.30;99.90
17697;DHT22;8967;47.984;7.842;2022-10-23T03:40:28;13.20;99.90
17697;DHT22;8967;47.984;7.842;2022-10-23T03:42:55;13.20;99.90
17697;DHT22;8967;47.984;7.842;2022-10-23T03:45:22;13.20;99.90
17697;DHT22;8967;47.984;7.842;2022-10-23T03:47:49;13.20;99.90
17697;DHT22;8967;47.984;7.842;2022-10-23T03:50:18;13.20;99.90
17697;DHT22;8967;47.984;7.842;2022-10-23T03:52:46;13.20;99.90
17697;DHT22;8967;47.984;7.842;2022-10-23T03:55:13;13.10;99.90
17697;DHT22;8967;47.984;7.842;2022-10-23T03:57:40;13.10;99.90
17697;DHT22;8967;47.984;7.842;2022-10-23T04:00:09;13.10;99.90
17697;DHT22;8967;47.984;7.842;2022-10-23T04:02:42;13.10;99.90
17697;DHT22;8967;47.984;7.842;2022-10-23T04:05:10;13.10;99.90
17697;DHT22;8967;47.984;7.842;2022-10-23T04:07:40;13.10;99.90
17697;DHT22;8967;47.984;7.842;2022-10-23T04:10:08;13.10;99.90
17697;DHT22;8967;47.984;7.842;2022-10-23T04:12:35;13.10;99.90
17697;DHT22;8967;47.984;7.842;2022-10-23T04:15:02;13.10;99.90
17697;DHT22;8967;47.984;7.842;2022-10-23T04:17:30;13.10;99.90
17697;DHT22;8967;47.984;7.842;2022-10-23T04:19:57;13.10;99.90
17697;DHT22;8967;47.984;7.842;2022-10-23T04:22:25;13.10;99.90
17697;DHT22;8967;47.984;7.842;2022-10-23T04:24:55;13.10;99.90
17697;DHT22;8967;47.984;7.842;2022-10-23T04:27:22;13.10;99.90
17697;DHT22;8967;47.984;7.842;2022-10-23T04:29:51;13.10;99.90
17697;DHT22;8967;47.984;7.842;2022-10-23T04:32:18;13.10;99.90
17697;DHT22;8967;47.984;7.842;2022-10-23T04:34:45;13.10;99.90
17697;DHT22;8967;47.984;7.842;2022-10-23T04:37:12;13.10;99.90
17697;DHT22;8967;47.984;7.842;2022-10-23T04:39:39;13.10;99.90
17697;DHT22;8967;47.984;7.842;2022-10-23T04:42:07;13.10;99.90
17697;DHT22;8967;47.984;7.842;2022-10-23T04:44:34;13.00;99.90
17697;DHT22;8967;47.984;7.842;2022-10-23T04:47:01;13.00;99.90
17697;DHT22;8967;47.984;7.842;2022-10-23T04:49:29;13.00;99.90
17697;DHT22;8967;47.984;7.842;2022-10-23T04:52:11;13.00;99.90
17697;DHT22;8967;47.984;7.842;2022-10-23T04:55:01;13.00;99.90
17697;DHT22;8967;47.984;7.842;2022-10-23T04:57:32;13.00;99.90
17697;DHT22;8967;47.984;7.842;2022-10-23T05:00:04;13.00;99.90
17697;DHT22;8967;47.984;7.842;2022-10-23T05:02:43;13.00;99.90
17697;DHT22;8967;47.984;7.842;2022-10-23T05:05:12;13.00;99.90
17697;DHT22;8967;47.984;7.842;2022-10-23T05:07:53;12.90;99.90
17697;DHT22;8967;47.984;7.842;2022-10-23T05:10:43;12.90;99.90
17697;DHT22;8967;47.984;7.842;2022-10-23T05:13:14;12.90;99.90
17697;DHT22;8967;47.984;7.842;2022-10-23T05:15:41;12.90;99.90
17697;DHT22;8967;47.984;7.842;2022-10-23T05:18:11;12.80;99.90
17697;DHT22;8967;47.984;7.842;2022-10-23T05:20:39;12.80;99.90
17697;DHT22;8967;47.984;7.842;2022-10-23T05:23:11;12.80;99.90
17697;DHT22;8967;47.984;7.842;2022-10-23T05:25:49;12.70;99.90
17697;DHT22;8967;47.984;7.842;2022-10-23T05:28:18;12.70;99.90
17697;DHT22;8967;47.984;7.842;2022-10-23T05:30:45;12.70;99.90
17697;DHT22;8967;47.984;7.842;2022-10-23T05:33:13;12.70;99.90
17697;DHT22;8967;47.984;7.842;2022-10-23T05:35:43;12.70;99.90
17697;DHT22;8967;47.984;7.842;2022-10-23T05:38:13;12.60;99.90
17697;DHT22;8967;47.984;7.842;2022-10-23T05:40:41;12.60;99.90
17697;DHT22;8967;47.984;7.842;2022-10-23T05:43:14;12.70;99.90
17697;DHT22;8967;47.984;7.842;2022-10-23T05:46:21;12.70;99.90
17697;DHT22;8967;47.984;7.842;2022-10-23T05:49:14;12.70;99.90
17697;DHT22;8967;47.984;7.842;2022-10-23T05:52:01;12.70;99.90
17697;DHT22;8967;47.984;7.842;2022-10-23T05:54:34;12.70;99.90
17697;DHT22;8967;47.984;7.842;2022-10-23T05:57:20;12.70;99.90
17697;DHT22;8967;47.984;7.842;2022-10-23T05:59:49;12.70;99.90
17697;DHT22;8967;47.984;7.842;2022-10-23T06:02:26;12.70;99.90
17697;DHT22;8967;47.984;7.842;2022-10-23T06:05:06;12.80;99.90
17697;DHT22;8967;47.984;7.842;2022-10-23T06:07:55;12.80;99.90
17697;DHT22;8967;47.984;7.842;2022-10-23T06:10:22;12.80;99.90
17697;DHT22;8967;47.984;7.842;2022-10-23T06:12:51;12.80;99.90
17697;DHT22;8967;47.984;7.842;2022-10-23T06:15:18;12.80;99.90
17697;DHT22;8967;47.984;7.842;2022-10-23T06:18:00;12.80;99.90
17697;DHT22;8967;47.984;7.842;2022-10-23T06:20:30;12.80;99.90
17697;DHT22;8967;47.984;7.842;2022-10-23T06:23:11;12.90;99.90
17697;DHT22;8967;47.984;7.842;2022-10-23T06:26:01;12.90;99.90
17697;DHT22;8967;47.984;7.842;2022-10-23T06:28:36;12.90;99.90
17697;DHT22;8967;47.984;7.842;2022-10-23T06:31:04;12.90;99.90
17697;DHT22;8967;47.984;7.842;2022-10-23T06:33:33;12.90;99.90
17697;DHT22;8967;47.984;7.842;2022-10-23T06:36:02;12.90;99.90
17697;DHT22;8967;47.984;7.842;2022-10-23T06:38:30;12.90;99.90
17697;DHT22;8967;47.984;7.842;2022-10-23T06:41:03;12.90;99.90
17697;DHT22;8967;47.984;7.842;2022-10-23T06:43:35;12.90;99.90
17697;DHT22;8967;47.984;7.842;2022-10-23T06:46:37;12.90;99.90
17697;DHT22;8967;47.984;7.842;2022-10-23T06:49:24;12.90;99.90
17697;DHT22;8967;47.984;7.842;2022-10-23T06:51:53;12.90;99.90
17697;DHT22;8967;47.984;7.842;2022-10-23T06:54:21;12.90;99.90
17697;DHT22;8967;47.984;7.842;2022-10-23T06:56:48;13.00;99.90
17697;DHT22;8967;47.984;7.842;2022-10-23T06:59:22;13.00;99.90
17697;DHT22;8967;47.984;7.842;2022-10-23T07:01:52;13.00;99.90
17697;DHT22;8967;47.984;7.842;2022-10-23T07:04:19;13.00;99.90
17697;DHT22;8967;47.984;7.842;2022-10-23T07:06:48;13.00;99.90
17697;DHT22;8967;47.984;7.842;2022-10-23T07:09:22;13.00;99.90
17697;DHT22;8967;47.984;7.842;2022-10-23T07:11:51;13.00;99.90
17697;DHT22;8967;47.984;7.842;2022-10-23T07:14:24;13.00;99.90
17697;DHT22;8967;47.984;7.842;2022-10-23T07:16:51;13.00;99.90
17697;DHT22;8967;47.984;7.842;2022-10-23T07:19:19;13.10;99.90
17697;DHT22;8967;47.984;7.842;2022-10-23T07:21:56;13.10;99.90
17697;DHT22;8967;47.984;7.842;2022-10-23T07:24:42;13.10;99.90
17697;DHT22;8967;47.984;7.842;2022-10-23T07:27:38;13.10;99.90
17697;DHT22;8967;47.984;7.842;2022-10-23T07:30:08;13.20;99.90
17697;DHT22;8967;47.984;7.842;2022-10-23T07:32:44;13.20;99.90
17697;DHT22;8967;47.984;7.842;2022-10-23T07:35:30;13.30;99.90
17697;DHT22;8967;47.984;7.842;2022-10-23T07:38:05;13.30;99.90
17697;DHT22;8967;47.984;7.842;2022-10-23T07:40:36;13.30;99.90
17697;DHT22;8967;47.984;7.842;2022-10-23T07:43:04;13.30;99.90
17697;DHT22;8967;47.984;7.842;2022-10-23T07:45:31;13.40;99.90
17697;DHT22;8967;47.984;7.842;2022-10-23T07:48:04;13.40;99.90
17697;DHT22;8967;47.984;7.842;2022-10-23T07:50:48;13.40;99.90
17697;DHT22;8967;47.984;7.842;2022-10-23T07:53:19;13.50;99.90
17697;DHT22;8967;47.984;7.842;2022-10-23T07:55:53;13.50;99.90
17697;DHT22;8967;47.984;7.842;2022-10-23T07:58:32;13.50;99.90
17697;DHT22;8967;47.984;7.842;2022-10-23T08:01:16;13.50;99.90
17697;DHT22;8967;47.984;7.842;2022-10-23T08:03:45;13.50;99.90
17697;DHT22;8967;47.984;7.842;2022-10-23T08:06:12;13.60;99.90
17697;DHT22;8967;47.984;7.842;2022-10-23T08:08:41;13.60;99.90
17697;DHT22;8967;47.984;7.842;2022-10-23T08:11:10;13.60;99.90
17697;DHT22;8967;47.984;7.842;2022-10-23T08:13:46;13.70;99.90
17697;DHT22;8967;47.984;7.842;2022-10-23T08:16:13;13.70;99.90
17697;DHT22;8967;47.984;7.842;2022-10-23T08:18:58;13.80;99.90
17697;DHT22;8967;47.984;7.842;2022-10-23T08:21:27;13.80;99.90
17697;DHT22;8967;47.984;7.842;2022-10-23T08:23:56;13.80;99.90
17697;DHT22;8967;47.984;7.842;2022-10-23T08:26:25;13.90;99.90
17697;DHT22;8967;47.984;7.842;2022-10-23T08:28:54;13.90;99.90
17697;DHT22;8967;47.984;7.842;2022-10-23T08:31:22;14.00;99.90
17697;DHT22;8967;47.984;7.842;2022-10-23T08:34:18;14.00;99.90
17697;DHT22;8967;47.984;7.842;2022-10-23T08:36:47;14.10;99.90
17697;DHT22;8967;47.984;7.842;2022-10-23T08:39:15;14.10;99.90
17697;DHT22;8967;47.984;7.842;2022-10-23T08:41:59;14.20;99.90
17697;DHT22;8967;47.984;7.842;2022-10-23T08:44:29;14.30;99.90
17697;DHT22;8967;47.984;7.842;2022-10-23T08:47:02;14.40;99.90
17697;DHT22;8967;47.984;7.842;2022-10-23T08:49:52;14.40;99.90
17697;DHT22;8967;47.984;7.842;2022-10-23T08:52:24;14.40;99.90
17697;DHT22;8967;47.984;7.842;2022-10-23T08:55:14;14.50;99.90
17697;DHT22;8967;47.984;7.842;2022-10-23T08:57:46;14.50;99.90
17697;DHT22;8967;47.984;7.842;2022-10-23T09:00:18;14.60;99.90
17697;DHT22;8967;47.984;7.842;2022-10-23T09:02:47;14.70;99.90
17697;DHT22;8967;47.984;7.842;2022-10-23T09:05:17;14.70;99.90
17697;DHT22;8967;47.984;7.842;2022-10-23T09:08:03;14.80;99.90
17697;DHT22;8967;47.984;7.842;2022-10-23T09:10:44;14.80;99.90
17697;DHT22;8967;47.984;7.842;2022-10-23T09:13:31;14.90;99.90
17697;DHT22;8967;47.984;7.842;2022-10-23T09:16:04;15.00;99.90
17697;DHT22;8967;47.984;7.842;2022-10-23T09:18:33;15.10;99.90
17697;DHT22;8967;47.984;7.842;2022-10-23T09:21:01;15.10;99.90
17697;DHT22;8967;47.984;7.842;2022-10-23T09:23:28;15.20;99.90
17697;DHT22;8967;47.984;7.842;2022-10-23T09:26:00;15.30;99.90
17697;DHT22;8967;47.984;7.842;2022-10-23T09:28:30;15.40;99.90
17697;DHT22;8967;47.984;7.842;2022-10-23T09:31:05;15.40;99.90
17697;DHT22;8967;47.984;7.842;2022-10-23T09:33:33;15.50;99.90
17697;DHT22;8967;47.984;7.842;2022-10-23T09:36:03;15.50;99.90
17697;DHT22;8967;47.984;7.842;2022-10-23T09:38:32;15.60;99.90
17697;DHT22;8967;47.984;7.842;2022-10-23T09:41:05;15.60;99.90
17697;DHT22;8967;47.984;7.842;2022-10-23T09:43:33;15.70;99.90
17697;DHT22;8967;47.984;7.842;2022-10-23T09:46:04;15.70;99.90
17697;DHT22;8967;47.984;7.842;2022-10-23T09:48:33;15.80;99.90
17697;DHT22;8967;47.984;7.842;2022-10-23T09:51:12;15.90;99.90
17697;DHT22;8967;47.984;7.842;2022-10-23T09:53:48;15.90;99.90
17697;DHT22;8967;47.984;7.842;2022-10-23T09:56:26;16.00;99.90
17697;DHT22;8967;47.984;7.842;2022-10-23T09:58:55;16.00;99.90
17697;DHT22;8967;47.984;7.842;2022-10-23T10:01:24;16.10;99.90
17697;DHT22;8967;47.984;7.842;2022-10-23T10:03:54;16.10;99.90
17697;DHT22;8967;47.984;7.842;2022-10-23T10:06:26;16.20;99.90
17697;DHT22;8967;47.984;7.842;2022-10-23T10:08:56;16.30;99.90
17697;DHT22;8967;47.984;7.842;2022-10-23T10:11:29;16.30;99.90
17697;DHT22;8967;47.984;7.842;2022-10-23T10:17:00;16.40;99.90
17697;DHT22;8967;47.984;7.842;2022-10-23T10:19:37;16.50;99.90
17697;DHT22;8967;47.984;7.842;2022-10-23T10:22:25;16.60;99.90
17697;DHT22;8967;47.984;7.842;2022-10-23T10:25:02;16.60;99.90
17697;DHT22;8967;47.984;7.842;2022-10-23T10:27:44;16.70;99.90
17697;DHT22;8967;47.984;7.842;2022-10-23T10:30:13;16.80;99.90
17697;DHT22;8967;47.984;7.842;2022-10-23T10:32:46;16.80;99.90
17697;DHT22;8967;47.984;7.842;2022-10-23T10:35:39;16.90;99.90
17697;DHT22;8967;47.984;7.842;2022-10-23T10:38:18;16.90;99.90
17697;DHT22;8967;47.984;7.842;2022-10-23T10:40:55;17.00;99.90
17697;DHT22;8967;47.984;7.842;2022-10-23T10:43:36;17.00;99.90
17697;DHT22;8967;47.984;7.842;2022-10-23T10:46:15;17.10;99.90
17697;DHT22;8967;47.984;7.842;2022-10-23T10:48:48;17.20;99.90
17697;DHT22;8967;47.984;7.842;2022-10-23T10:51:29;17.20;99.90
17697;DHT22;8967;47.984;7.842;2022-10-23T10:54:11;17.30;99.90
17697;DHT22;8967;47.984;7.842;2022-10-23T10:56:43;17.30;99.90
17697;DHT22;8967;47.984;7.842;2022-10-23T10:59:15;17.40;99.90
17697;DHT22;8967;47.984;7.842;2022-10-23T11:01:49;17.40;99.90
17697;DHT22;8967;47.984;7.842;2022-10-23T11:04:27;17.50;99.90
17697;DHT22;8967;47.984;7.842;2022-10-23T11:06:57;17.60;99.90
17697;DHT22;8967;47.984;7.842;2022-10-23T11:09:27;17.60;99.90
17697;DHT22;8967;47.984;7.842;2022-10-23T11:11:56;17.70;99.90
17697;DHT22;8967;47.984;7.842;2022-10-23T11:14:26;17.70;99.90
17697;DHT22;8967;47.984;7.842;2022-10-23T11:16:59;17.80;99.90
17697;DHT22;8967;47.984;7.842;2022-10-23T11:19:29;17.90;99.90
17697;DHT22;8967;47.984;7.842;2022-10-23T11:22:03;17.90;99.90
17697;DHT22;8967;47.984;7.842;2022-10-23T11:27:56;18.00;99.90
17697;DHT22;8967;47.984;7.842;2022-10-23T11:30:37;18.10;99.90
17697;DHT22;8967;47.984;7.842;2022-10-23T11:36:17;18.20;99.90
17697;DHT22;8967;47.984;7.842;2022-10-23T11:38:47;18.30;99.90
17697;DHT22;8967;47.984;7.842;2022-10-23T11:41:20;18.30;99.90
17697;DHT22;8967;47.984;7.842;2022-10-23T11:43:49;18.40;99.90
17697;DHT22;8967;47.984;7.842;2022-10-23T11:46:30;18.40;99.90
17697;DHT22;8967;47.984;7.842;2022-10-23T11:48:58;18.50;99.90
17697;DHT22;8967;47.984;7.842;2022-10-23T11:51:29;18.50;99.90
17697;DHT22;8967;47.984;7.842;2022-10-23T11:54:07;18.60;99.90
17697;DHT22;8967;47.984;7.842;2022-10-23T11:56:53;18.60;99.90
17697;DHT22;8967;47.984;7.842;2022-10-23T11:59:24;18.70;99.90
17697;DHT22;8967;47.984;7.842;2022-10-23T12:01:54;18.70;99.90
17697;DHT22;8967;47.984;7.842;2022-10-23T12:04:25;18.80;99.90
17697;DHT22;8967;47.984;7.842;2022-10-23T12:06:56;18.80;99.90
17697;DHT22;8967;47.984;7.842;2022-10-23T12:09:27;18.80;99.90
17697;DHT22;8967;47.984;7.842;2022-10-23T12:12:24;18.80;99.90
17697;DHT22;8967;47.984;7.842;2022-10-23T12:14:51;18.90;99.90
17697;DHT22;8967;47.984;7.842;2022-10-23T12:17:41;18.80;99.90
17697;DHT22;8967;47.984;7.842;2022-10-23T12:23:26;18.80;99.90
17697;DHT22;8967;47.984;7.842;2022-10-23T12:29:06;18.80;99.90
17697;DHT22;8967;47.984;7.842;2022-10-23T12:31:44;18.80;99.90
17697;DHT22;8967;47.984;7.842;2022-10-23T12:34:23;18.80;99.90
17697;DHT22;8967;47.984;7.842;2022-10-23T12:37:08;18.80;99.90
17697;DHT22;8967;47.984;7.842;2022-10-23T12:39:41;18.80;99.90
17697;DHT22;8967;47.984;7.842;2022-10-23T12:42:15;18.80;99.90
17697;DHT22;8967;47.984;7.842;2022-10-23T12:44:43;18.90;99.90
17697;DHT22;8967;47.984;7.842;2022-10-23T12:47:14;18.90;99.90
17697;DHT22;8967;47.984;7.842;2022-10-23T12:49:49;18.90;99.90
17697;DHT22;8967;47.984;7.842;2022-10-23T12:52:19;18.90;99.90
17697;DHT22;8967;47.984;7.842;2022-10-23T12:54:49;18.90;99.90
17697;DHT22;8967;47.984;7.842;2022-10-23T12:57:19;18.90;99.90
17697;DHT22;8967;47.984;7.842;2022-10-23T12:59:48;18.90;99.90
17697;DHT22;8967;47.984;7.842;2022-10-23T13:02:26;19.00;99.90
17697;DHT22;8967;47.984;7.842;2022-10-23T13:04:57;19.00;99.90
17697;DHT22;8967;47.984;7.842;2022-10-23T13:07:28;19.10;99.90
17697;DHT22;8967;47.984;7.842;2022-10-23T13:09:59;19.10;99.90
17697;DHT22;8967;47.984;7.842;2022-10-23T13:12:32;19.20;99.90
17697;DHT22;8967;47.984;7.842;2022-10-23T13:15:01;19.20;99.90
17697;DHT22;8967;47.984;7.842;2022-10-23T13:17:40;19.30;99.90
17697;DHT22;8967;47.984;7.842;2022-10-23T13:20:24;19.30;99.90
17697;DHT22;8967;47.984;7.842;2022-10-23T13:22:59;19.40;99.90
17697;DHT22;8967;47.984;7.842;2022-10-23T13:25:28;19.40;99.90
17697;DHT22;8967;47.984;7.842;2022-10-23T13:28:12;19.40;99.90
17697;DHT22;8967;47.984;7.842;2022-10-23T13:30:42;19.50;99.90
17697;DHT22;8967;47.984;7.842;2022-10-23T13:33:18;19.50;99.90
17697;DHT22;8967;47.984;7.842;2022-10-23T13:35:55;19.50;99.90
17697;DHT22;8967;47.984;7.842;2022-10-23T13:38:31;19.60;99.90
17697;DHT22;8967;47.984;7.842;2022-10-23T13:40:59;19.60;99.90
17697;DHT22;8967;47.984;7.842;2022-10-23T13:43:27;19.60;99.90
17697;DHT22;8967;47.984;7.842;2022-10-23T13:45:56;19.60;99.90
17697;DHT22;8967;47.984;7.842;2022-10-23T13:48:23;19.60;99.90
17697;DHT22;8967;47.984;7.842;2022-10-23T13:50:50;19.60;99.90
17697;DHT22;8967;47.984;7.842;2022-10-23T13:53:19;19.70;99.90
17697;DHT22;8967;47.984;7.842;2022-10-23T13:55:49;19.70;99.90
17697;DHT22;8967;47.984;7.842;2022-10-23T13:58:17;19.70;99.90
17697;DHT22;8967;47.984;7.842;2022-10-23T14:00:45;19.70;99.90
17697;DHT22;8967;47.984;7.842;2022-10-23T14:03:13;19.70;99.90
17697;DHT22;8967;47.984;7.842;2022-10-23T14:05:40;19.70;99.90
17697;DHT22;8967;47.984;7.842;2022-10-23T14:08:07;19.70;99.90
17697;DHT22;8967;47.984;7.842;2022-10-23T14:10:35;19.70;99.90
17697;DHT22;8967;47.984;7.842;2022-10-23T14:13:02;19.80;99.90
17697;DHT22;8967;47.984;7.842;2022-10-23T14:15:32;19.80;99.90
17697;DHT22;8967;47.984;7.842;2022-10-23T14:17:59;19.80;99.90
17697;DHT22;8967;47.984;7.842;2022-10-23T14:20:26;19.90;99.90
17697;DHT22;8967;47.984;7.842;2022-10-23T14:22:53;19.90;99.90
17697;DHT22;8967;47.984;7.842;2022-10-23T14:25:20;19.90;99.90
17697;DHT22;8967;47.984;7.842;2022-10-23T14:27:48;19.90;99.90
17697;DHT22;8967;47.984;7.842;2022-10-23T14:30:15;19.90;99.90
17697;DHT22;8967;47.984;7.842;2022-10-23T14:32:42;19.90;99.90
17697;DHT22;8967;47.984;7.842;2022-10-23T14:35:09;19.90;99.90
17697;DHT22;8967;47.984;7.842;2022-10-23T14:37:36;19.90;99.90
17697;DHT22;8967;47.984;7.842;2022-10-23T14:40:05;19.90;99.90
17697;DHT22;8967;47.984;7.842;2022-10-23T14:42:32;19.90;99.90
17697;DHT22;8967;47.984;7.842;2022-10-23T14:45:01;19.90;99.90
17697;DHT22;8967;47.984;7.842;2022-10-23T14:47:31;19.90;99.90
17697;DHT22;8967;47.984;7.842;2022-10-23T14:50:00;19.90;99.90
17697;DHT22;8967;47.984;7.842;2022-10-23T14:52:27;19.90;99.90
17697;DHT22;8967;47.984;7.842;2022-10-23T14:54:54;19.90;99.90
17697;DHT22;8967;47.984;7.842;2022-10-23T14:57:21;19.90;99.90
17697;DHT22;8967;47.984;7.842;2022-10-23T14:59:48;19.90;99.90
17697;DHT22;8967;47.984;7.842;2022-10-23T15:02:17;19.90;99.90
17697;DHT22;8967;47.984;7.842;2022-10-23T15:04:43;19.90;99.90
17697;DHT22;8967;47.984;7.842;2022-10-23T15:07:10;19.90;99.90
17697;DHT22;8967;47.984;7.842;2022-10-23T15:09:37;19.90;99.90
17697;DHT22;8967;47.984;7.842;2022-10-23T15:12:05;19.90;99.90
17697;DHT22;8967;47.984;7.842;2022-10-23T15:14:33;19.80;99.90
17697;DHT22;8967;47.984;7.842;2022-10-23T15:17:00;19.90;99.90
17697;DHT22;8967;47.984;7.842;2022-10-23T15:19:28;19.80;99.90
17697;DHT22;8967;47.984;7.842;2022-10-23T15:21:57;19.80;99.90
17697;DHT22;8967;47.984;7.842;2022-10-23T15:24:24;19.80;99.90
17697;DHT22;8967;47.984;7.842;2022-10-23T15:26:52;19.70;99.90
17697;DHT22;8967;47.984;7.842;2022-10-23T15:29:19;19.70;99.90
17697;DHT22;8967;47.984;7.842;2022-10-23T15:31:57;19.70;99.90
17697;DHT22;8967;47.984;7.842;2022-10-23T15:34:26;19.70;99.90
17697;DHT22;8967;47.984;7.842;2022-10-23T15:36:55;19.60;99.90
17697;DHT22;8967;47.984;7.842;2022-10-23T15:39:27;19.60;99.90
17697;DHT22;8967;47.984;7.842;2022-10-23T15:41:58;19.60;99.90
17697;DHT22;8967;47.984;7.842;2022-10-23T15:44:27;19.60;99.90
17697;DHT22;8967;47.984;7.842;2022-10-23T15:46:55;19.50;99.90
17697;DHT22;8967;47.984;7.842;2022-10-23T15:49:26;19.50;99.90
17697;DHT22;8967;47.984;7.842;2022-10-23T15:51:55;19.50;99.90
17697;DHT22;8967;47.984;7.842;2022-10-23T15:54:22;19.50;99.90
17697;DHT22;8967;47.984;7.842;2022-10-23T15:56:51;19.40;99.90
17697;DHT22;8967;47.984;7.842;2022-10-23T15:59:20;19.40;99.90
17697;DHT22;8967;47.984;7.842;2022-10-23T16:01:47;19.40;99.90
17697;DHT22;8967;47.984;7.842;2022-10-23T16:04:14;19.30;99.90
17697;DHT22;8967;47.984;7.842;2022-10-23T16:06:42;19.30;99.90
17697;DHT22;8967;47.984;7.842;2022-10-23T16:09:13;19.20;99.90
17697;DHT22;8967;47.984;7.842;2022-10-23T16:11:41;19.20;99.90
17697;DHT22;8967;47.984;7.842;2022-10-23T16:14:11;19.20;99.90
17697;DHT22;8967;47.984;7.842;2022-10-23T16:16:38;19.20;99.90
17697;DHT22;8967;47.984;7.842;2022-10-23T16:19:05;19.10;99.90
17697;DHT22;8967;47.984;7.842;2022-10-23T16:21:34;19.10;99.90
17697;DHT22;8967;47.984;7.842;2022-10-23T16:24:02;19.10;99.90
17697;DHT22;8967;47.984;7.842;2022-10-23T16:26:31;19.10;99.90
17697;DHT22;8967;47.984;7.842;2022-10-23T16:29:01;19.00;99.90
17697;DHT22;8967;47.984;7.842;2022-10-23T16:31:28;19.00;99.90